sensor_id;sensor_type;location;lat;lon;timestamp;pressure;altitude;pressure_sealevel;temperature;humidity
10060;BME280;5069;49.306;8.636;2023-02-03T00:02:14;101806.25;;;7.88;100.00
10060;BME280;5069;49.306;8.636;2023-02-03T00:05:15;101799.22;;;7.86;100.00
10060;BME280;5069;49.306;8.636;2023-02-03T00:08:17;101795.75;;;7.88;100.00
10060;BME280;5069;49.306;8.636;2023-02-03T00:11:19;101809.75;;;7.91;100.00
10060;BME280;5069;49.306;8.636;2023-02-03T00:14:21;101805.34;;;7.93;100.00
10060;BME280;5069;49.306;8.636;2023-02-03T00:17:22;101814.13;;;7.82;100.00
10060;BME280;5069;49.306;8.636;2023-02-03T00:20:24;101810.59;;;7.93;100.00
10060;BME280;5069;49.306;8.636;2023-02-03T00:23:26;101818.50;;;7.85;100.00
10060;BME280;5069;49.306;8.636;2023-02-03T00:26:32;101822.00;;;7.85;100.00
10060;BME280;5069;49.306;8.636;2023-02-03T00:29:33;101810.63;;;7.85;100.00
10060;BME280;5069;49.306;8.636;2023-02-03T00:32:35;101803.63;;;7.85;100.00
10060;BME280;5069;49.306;8.636;2023-02-03T00:35:37;101803.63;;;7.85;100.00
10060;BME280;5069;49.306;8.636;2023-02-03T00:38:40;101799.25;;;7.91;100.00
10060;BME280;5069;49.306;8.636;2023-02-03T00:41:41;101794.84;;;7.86;100.00
10060;BME280;5069;49.306;8.636;2023-02-03T00:44:43;101802.75;;;7.89;100.00
10060;BME280;5069;49.306;8.636;2023-02-03T00:47:44;101800.09;;;7.88;100.00
10060;BME280;5069;49.306;8.636;2023-02-03T00:50:47;101786.13;;;7.91;100.00
10060;BME280;5069;49.306;8.636;2023-02-03T00:53:48;101779.97;;;7.93;100.00
10060;BME280;5069;49.306;8.636;2023-02-03T00:56:50;101775.59;;;7.94;100.00
10060;BME280;5069;49.306;8.636;2023-02-03T00:59:51;101766.84;;;7.95;100.00
10060;BME280;5069;49.306;8.636;2023-02-03T01:02:53;101765.13;;;7.91;100.00
10060;BME280;5069;49.306;8.636;2023-02-03T01:05:55;101768.59;;;8.02;100.00
10060;BME280;5069;49.306;8.636;2023-02-03T01:08:56;101771.22;;;7.99;100.00
10060;BME280;5069;49.306;8.636;2023-02-03T01:11:57;101785.25;;;8.02;100.00
10060;BME280;5069;49.306;8.636;2023-02-03T01:15:00;101789.59;;;8.05;100.00
10060;BME280;5069;49.306;8.636;2023-02-03T01:18:01;101795.75;;;8.01;100.00
10060;BME280;5069;49.306;8.636;2023-02-03T01:21:08;101800.97;;;8.01;100.00
10060;BME280;5069;49.306;8.636;2023-02-03T01:24:10;101806.25;;;8.01;100.00
10060;BME280;5069;49.306;8.636;2023-02-03T01:27:12;101799.22;;;8.04;100.00
10060;BME280;5069;49.306;8.636;2023-02-03T01:30:13;101791.34;;;8.06;100.00
10060;BME280;5069;49.306;8.636;2023-02-03T01:33:15;101782.59;;;8.07;100.00
10060;BME280;5069;49.306;8.636;2023-02-03T01:36:17;101779.97;;;8.08;100.00
10060;BME280;5069;49.306;8.636;2023-02-03T01:39:18;101744.94;;;8.06;100.00
10060;BME280;5069;49.306;8.636;2023-02-03T01:42:20;101744.06;;;8.06;100.00
10060;BME280;5069;49.306;8.636;2023-02-03T01:45:21;101724.81;;;7.98;100.00
10060;BME280;5069;49.306;8.636;2023-02-03T01:48:23;101714.34;;;7.95;100.00
10060;BME280;5069;49.306;8.636;2023-02-03T01:51:25;101717.84;;;7.97;100.00
10060;BME280;5069;49.306;8.636;2023-02-03T01:54:30;101710.81;;;7.93;100.00
10060;BME280;5069;49.306;8.636;2023-02-03T01:57:38;101717.84;;;7.94;100.00
10060;BME280;5069;49.306;8.636;2023-02-03T02:00:42;101725.72;;;7.97;100.00
10060;BME280;5069;49.306;8.636;2023-02-03T02:03:48;101716.97;;;7.93;100.00
10060;BME280;5069;49.306;8.636;2023-02-03T02:06:50;101709.09;;;7.92;100.00
10060;BME280;5069;49.306;8.636;2023-02-03T02:09:53;101685.44;;;7.93;100.00
10060;BME280;5069;49.306;8.636;2023-02-03T02:12:56;101663.56;;;7.93;100.00
10060;BME280;5069;49.306;8.636;2023-02-03T02:26:46;101696.84;;;7.84;100.00
10060;BME280;5069;49.306;8.636;2023-02-03T02:33:46;101703.84;;;7.88;100.00
10060;BME280;5069;49.306;8.636;2023-02-03T02:40:53;101691.59;;;7.91;100.00
10060;BME280;5069;49.306;8.636;2023-02-03T02:44:02;101686.34;;;7.87;100.00
10060;BME280;5069;49.306;8.636;2023-02-03T02:47:13;101691.59;;;7.87;100.00
10060;BME280;5069;49.306;8.636;2023-02-03T02:50:22;101688.97;;;7.89;100.00
10060;BME280;5069;49.306;8.636;2023-02-03T02:53:32;101682.88;;;7.85;100.00
10060;BME280;5069;49.306;8.636;2023-02-03T02:56:38;101677.59;;;7.82;100.00
10060;BME280;5069;49.306;8.636;2023-02-03T02:59:40;101675.84;;;7.84;100.00
10060;BME280;5069;49.306;8.636;2023-02-03T03:02:42;101686.38;;;7.78;100.00
10060;BME280;5069;49.306;8.636;2023-02-03T03:05:51;101702.97;;;7.86;100.00
10060;BME280;5069;49.306;8.636;2023-02-03T03:09:00;101712.63;;;7.78;100.00
10060;BME280;5069;49.306;8.636;2023-02-03T03:12:09;101728.38;;;7.80;100.00
10060;BME280;5069;49.306;8.636;2023-02-03T03:15:20;101714.38;;;7.79;100.00
10060;BME280;5069;49.306;8.636;2023-02-03T03:18:29;101730.09;;;7.76;100.00
10060;BME280;5069;49.306;8.636;2023-02-03T03:21:42;101729.22;;;7.83;100.00
10060;BME280;5069;49.306;8.636;2023-02-03T03:24:53;101745.88;;;7.78;100.00
10060;BME280;5069;49.306;8.636;2023-02-03T03:28:00;101749.34;;;7.81;100.00
10060;BME280;5069;49.306;8.636;2023-02-03T03:31:03;101754.59;;;7.81;100.00
10060;BME280;5069;49.306;8.636;2023-02-03T03:34:07;101757.22;;;7.86;100.00
10060;BME280;5069;49.306;8.636;2023-02-03T03:37:23;101770.34;;;7.81;100.00
10060;BME280;5069;49.306;8.636;2023-02-03T03:40:34;101754.63;;;7.78;100.00
10060;BME280;5069;49.306;8.636;2023-02-03T03:43:41;101744.13;;;7.72;100.00
10060;BME280;5069;49.306;8.636;2023-02-03T03:46:50;101752.88;;;7.74;100.00
10060;BME280;5069;49.306;8.636;2023-02-03T03:49:53;101752.84;;;7.70;100.00
10060;BME280;5069;49.306;8.636;2023-02-03T03:52:57;101744.09;;;7.69;100.00
10060;BME280;5069;49.306;8.636;2023-02-03T03:56:01;101745.88;;;7.61;100.00
10060;BME280;5069;49.306;8.636;2023-02-03T03:59:06;101748.50;;;7.61;100.00
10060;BME280;5069;49.306;8.636;2023-02-03T04:02:10;101738.88;;;7.57;100.00
10060;BME280;5069;49.306;8.636;2023-02-03T04:05:13;101733.63;;;7.57;100.00
10060;BME280;5069;49.306;8.636;2023-02-03T04:08:14;101735.38;;;7.51;100.00
10060;BME280;5069;49.306;8.636;2023-02-03T04:11:16;101742.34;;;7.47;100.00
10060;BME280;5069;49.306;8.636;2023-02-03T04:14:37;101731.00;;;7.33;100.00
10060;BME280;5069;49.306;8.636;2023-02-03T04:17:39;101736.25;;;7.34;100.00
10060;BME280;5069;49.306;8.636;2023-02-03T04:20:40;101733.63;;;7.34;100.00
10060;BME280;5069;49.306;8.636;2023-02-03T04:23:42;101751.97;;;7.33;100.00
10060;BME280;5069;49.306;8.636;2023-02-03T04:26:43;101755.47;;;7.41;100.00
10060;BME280;5069;49.306;8.636;2023-02-03T04:29:45;101750.22;;;7.33;100.00
10060;BME280;5069;49.306;8.636;2023-02-03T04:32:47;101745.88;;;7.34;100.00
10060;BME280;5069;49.306;8.636;2023-02-03T04:35:49;101735.34;;;7.37;100.00
10060;BME280;5069;49.306;8.636;2023-02-03T04:38:50;101742.34;;;7.38;100.00
10060;BME280;5069;49.306;8.636;2023-02-03T04:41:52;101734.47;;;7.30;100.00
10060;BME280;5069;49.306;8.636;2023-02-03T04:44:53;101743.22;;;7.32;100.00
10060;BME280;5069;49.306;8.636;2023-02-03T04:47:54;101747.59;;;7.38;100.00
10060;BME280;5069;49.306;8.636;2023-02-03T04:51:03;101756.34;;;7.32;100.00
10060;BME280;5069;49.306;8.636;2023-02-03T04:54:05;101749.34;;;7.36;100.00
10060;BME280;5069;49.306;8.636;2023-02-03T04:57:06;101747.59;;;7.32;100.00
10060;BME280;5069;49.306;8.636;2023-02-03T05:00:08;101747.59;;;7.32;100.00
10060;BME280;5069;49.306;8.636;2023-02-03T05:03:10;101736.22;;;7.31;100.00
10060;BME280;5069;49.306;8.636;2023-02-03T05:06:11;101732.72;;;7.31;100.00
10060;BME280;5069;49.306;8.636;2023-02-03T05:09:13;101731.88;;;7.29;100.00
10060;BME280;5069;49.306;8.636;2023-02-03T05:12:14;101722.22;;;7.35;100.00
10060;BME280;5069;49.306;8.636;2023-02-03T05:15:16;101730.97;;;7.30;100.00
10060;BME280;5069;49.306;8.636;2023-02-03T05:18:17;101734.50;;;7.33;100.00
10060;BME280;5069;49.306;8.636;2023-02-03T05:21:19;101726.63;;;7.32;100.00
10060;BME280;5069;49.306;8.636;2023-02-03T05:24:20;101722.25;;;7.34;100.00
10060;BME280;5069;49.306;8.636;2023-02-03T05:27:21;101723.09;;;7.30;100.00
10060;BME280;5069;49.306;8.636;2023-02-03T05:30:23;101727.50;;;7.32;100.00
10060;BME280;5069;49.306;8.636;2023-02-03T05:33:25;101726.59;;;7.26;100.00
10060;BME280;5069;49.306;8.636;2023-02-03T05:36:26;101714.38;;;7.31;100.00
10060;BME280;5069;49.306;8.636;2023-02-03T05:39:27;101728.38;;;7.33;100.00
10060;BME280;5069;49.306;8.636;2023-02-03T05:42:29;101740.59;;;7.31;100.00
10060;BME280;5069;49.306;8.636;2023-02-03T05:45:30;101729.22;;;7.32;100.00
10060;BME280;5069;49.306;8.636;2023-02-03T05:48:32;101729.25;;;7.39;100.00
10060;BME280;5069;49.306;8.636;2023-02-03T05:51:34;101731.00;;;7.39;100.00
10060;BME280;5069;49.306;8.636;2023-02-03T05:54:36;101720.50;;;7.33;100.00
10060;BME280;5069;49.306;8.636;2023-02-03T05:57:37;101721.38;;;7.32;100.00
10060;BME280;5069;49.306;8.636;2023-02-03T06:00:39;101706.50;;;7.38;100.00
10060;BME280;5069;49.306;8.636;2023-02-03T06:03:40;101712.63;;;7.39;100.00
10060;BME280;5069;49.306;8.636;2023-02-03T06:06:45;101706.50;;;7.31;100.00
10060;BME280;5069;49.306;8.636;2023-02-03T06:09:47;101696.88;;;7.37;100.00
10060;BME280;5069;49.306;8.636;2023-02-03T06:12:49;101701.25;;;7.31;100.00
10060;BME280;5069;49.306;8.636;2023-02-03T06:15:51;101700.38;;;7.35;100.00
10060;BME280;5069;49.306;8.636;2023-02-03T06:18:53;101697.75;;;7.35;100.00
10060;BME280;5069;49.306;8.636;2023-02-03T06:21:54;101684.66;;;7.27;100.00
10060;BME280;5069;49.306;8.636;2023-02-03T06:24:56;101689.03;;;7.28;100.00
10060;BME280;5069;49.306;8.636;2023-02-03T06:27:58;101682.00;;;7.18;100.00
10060;BME280;5069;49.306;8.636;2023-02-03T06:30:59;101683.75;;;7.19;100.00
10060;BME280;5069;49.306;8.636;2023-02-03T06:34:01;101695.13;;;7.14;100.00
10060;BME280;5069;49.306;8.636;2023-02-03T06:37:02;101696.00;;;7.05;100.00
10060;BME280;5069;49.306;8.636;2023-02-03T06:40:04;101682.88;;;7.05;100.00
10060;BME280;5069;49.306;8.636;2023-02-03T06:43:06;101689.00;;;6.99;100.00
10060;BME280;5069;49.306;8.636;2023-02-03T06:46:07;101698.59;;;6.94;100.00
10060;BME280;5069;49.306;8.636;2023-02-03T06:49:09;101693.34;;;6.91;100.00
10060;BME280;5069;49.306;8.636;2023-02-03T06:52:10;101698.56;;;6.91;100.00
10060;BME280;5069;49.306;8.636;2023-02-03T06:55:12;101698.59;;;6.94;100.00
10060;BME280;5069;49.306;8.636;2023-02-03T06:58:14;101713.44;;;6.88;100.00
10060;BME280;5069;49.306;8.636;2023-02-03T07:01:16;101716.94;;;6.94;100.00
10060;BME280;5069;49.306;8.636;2023-02-03T07:04:17;101706.47;;;6.94;100.00
10060;BME280;5069;49.306;8.636;2023-02-03T07:07:19;101718.69;;;6.97;100.00
10060;BME280;5069;49.306;8.636;2023-02-03T07:10:20;101717.81;;;6.96;100.00
10060;BME280;5069;49.306;8.636;2023-02-03T07:13:22;101729.16;;;6.97;100.00
10060;BME280;5069;49.306;8.636;2023-02-03T07:16:23;101726.53;;;6.95;100.00
10060;BME280;5069;49.306;8.636;2023-02-03T07:19:24;101733.56;;;6.99;100.00
10060;BME280;5069;49.306;8.636;2023-02-03T07:22:26;101733.56;;;7.05;100.00
10060;BME280;5069;49.306;8.636;2023-02-03T07:25:27;101745.81;;;7.03;100.00
10060;BME280;5069;49.306;8.636;2023-02-03T07:28:38;101747.53;;;7.07;100.00
10060;BME280;5069;49.306;8.636;2023-02-03T07:31:39;101730.09;;;7.16;100.00
10060;BME280;5069;49.306;8.636;2023-02-03T07:34:41;101748.44;;;7.11;100.00
10060;BME280;5069;49.306;8.636;2023-02-03T07:37:42;101743.19;;;7.14;100.00
10060;BME280;5069;49.306;8.636;2023-02-03T07:40:44;101744.09;;;7.30;100.00
10060;BME280;5069;49.306;8.636;2023-02-03T07:43:45;101749.34;;;7.27;100.00
10060;BME280;5069;49.306;8.636;2023-02-03T07:46:47;101745.84;;;7.20;100.00
10060;BME280;5069;49.306;8.636;2023-02-03T07:49:48;101739.72;;;7.20;100.00
10060;BME280;5069;49.306;8.636;2023-02-03T07:52:50;101740.59;;;7.22;100.00
10060;BME280;5069;49.306;8.636;2023-02-03T07:55:52;101739.72;;;7.27;100.00
10060;BME280;5069;49.306;8.636;2023-02-03T07:58:53;101746.72;;;7.28;100.00
10060;BME280;5069;49.306;8.636;2023-02-03T08:01:55;101749.34;;;7.33;100.00
10060;BME280;5069;49.306;8.636;2023-02-03T08:04:56;101762.47;;;7.37;100.00
10060;BME280;5069;49.306;8.636;2023-02-03T08:07:58;101769.47;;;7.38;100.00
10060;BME280;5069;49.306;8.636;2023-02-03T08:10:59;101754.56;;;7.30;100.00
10060;BME280;5069;49.306;8.636;2023-02-03T08:14:01;101744.09;;;7.28;100.00
10060;BME280;5069;49.306;8.636;2023-02-03T08:17:02;101762.47;;;7.33;100.00
10060;BME280;5069;49.306;8.636;2023-02-03T08:20:05;101750.22;;;7.36;100.00
10060;BME280;5069;49.306;8.636;2023-02-03T08:23:07;101766.84;;;7.43;100.00
10060;BME280;5069;49.306;8.636;2023-02-03T08:26:08;101765.13;;;7.45;100.00
10060;BME280;5069;49.306;8.636;2023-02-03T08:29:10;101752.00;;;7.45;100.00
10060;BME280;5069;49.306;8.636;2023-02-03T08:32:17;101748.50;;;7.44;100.00
10060;BME280;5069;49.306;8.636;2023-02-03T08:35:18;101749.38;;;7.45;100.00
10060;BME280;5069;49.306;8.636;2023-02-03T08:38:20;101763.34;;;7.48;100.00
10060;BME280;5069;49.306;8.636;2023-02-03T08:41:22;101760.72;;;7.48;100.00
10060;BME280;5069;49.306;8.636;2023-02-03T08:44:23;101751.09;;;7.58;100.00
10060;BME280;5069;49.306;8.636;2023-02-03T08:47:25;101755.47;;;7.59;100.00
10060;BME280;5069;49.306;8.636;2023-02-03T08:50:26;101753.72;;;7.64;100.00
10060;BME280;5069;49.306;8.636;2023-02-03T08:53:28;101744.13;;;7.66;100.00
10060;BME280;5069;49.306;8.636;2023-02-03T08:56:30;101739.75;;;7.68;100.00
10060;BME280;5069;49.306;8.636;2023-02-03T08:59:32;101739.75;;;7.68;100.00
10060;BME280;5069;49.306;8.636;2023-02-03T09:02:36;101760.75;;;7.73;100.00
10060;BME280;5069;49.306;8.636;2023-02-03T09:05:37;101760.72;;;7.82;100.00
10060;BME280;5069;49.306;8.636;2023-02-03T09:08:39;101749.38;;;7.78;100.00
10060;BME280;5069;49.306;8.636;2023-02-03T09:11:41;101752.88;;;7.77;100.00
10060;BME280;5069;49.306;8.636;2023-02-03T09:14:43;101747.59;;;7.83;100.00
10060;BME280;5069;49.306;8.636;2023-02-03T09:17:44;101752.88;;;7.77;100.00
10060;BME280;5069;49.306;8.636;2023-02-03T09:20:46;101753.72;;;7.76;100.00
10060;BME280;5069;49.306;8.636;2023-02-03T09:23:48;101752.88;;;7.77;100.00
10060;BME280;5069;49.306;8.636;2023-02-03T09:26:49;101751.97;;;7.83;100.00
10060;BME280;5069;49.306;8.636;2023-02-03T09:29:51;101758.09;;;7.82;100.00
10060;BME280;5069;49.306;8.636;2023-02-03T09:32:53;101747.63;;;7.71;100.00
10060;BME280;5069;49.306;8.636;2023-02-03T09:35:57;101741.50;;;7.78;100.00
10060;BME280;5069;49.306;8.636;2023-02-03T09:38:58;101747.63;;;7.71;100.00
10060;BME280;5069;49.306;8.636;2023-02-03T09:45:41;101737.13;;;7.68;100.00
10060;BME280;5069;49.306;8.636;2023-02-03T09:48:40;101745.84;;;7.70;100.00
10060;BME280;5069;49.306;8.636;2023-02-03T09:51:56;101745.88;;;7.78;100.00
10060;BME280;5069;49.306;8.636;2023-02-03T09:58:38;101753.75;;;7.92;100.00
10060;BME280;5069;49.306;8.636;2023-02-03T10:01:48;101758.09;;;7.89;100.00
10060;BME280;5069;49.306;8.636;2023-02-03T10:18:47;101744.97;;;7.96;100.00
10060;BME280;5069;49.306;8.636;2023-02-03T10:21:53;101767.72;;;7.98;100.00
10060;BME280;5069;49.306;8.636;2023-02-03T10:25:11;101772.97;;;7.92;100.00
10060;BME280;5069;49.306;8.636;2023-02-03T10:28:19;101764.22;;;7.95;100.00
10060;BME280;5069;49.306;8.636;2023-02-03T10:31:24;101771.25;;;7.89;100.00
10060;BME280;5069;49.306;8.636;2023-02-03T10:34:27;101759.88;;;7.91;100.00
10060;BME280;5069;49.306;8.636;2023-02-03T10:37:32;101750.22;;;7.97;100.00
10060;BME280;5069;49.306;8.636;2023-02-03T10:40:35;101747.59;;;8.08;100.00
10060;BME280;5069;49.306;8.636;2023-02-03T10:43:37;101739.69;;;8.06;100.00
10060;BME280;5069;49.306;8.636;2023-02-03T10:46:48;101737.03;;;8.15;100.00
10060;BME280;5069;49.306;8.636;2023-02-03T10:49:51;101719.53;;;8.22;100.00
10060;BME280;5069;49.306;8.636;2023-02-03T10:56:23;101723.03;;;8.35;100.00
10060;BME280;5069;49.306;8.636;2023-02-03T10:59:32;101709.00;;;8.36;100.00
10060;BME280;5069;49.306;8.636;2023-02-03T11:02:35;101702.88;;;8.27;100.00
10060;BME280;5069;49.306;8.636;2023-02-03T11:05:36;101704.63;;;8.27;100.00
10060;BME280;5069;49.306;8.636;2023-02-03T11:08:47;101705.50;;;8.35;100.00
10060;BME280;5069;49.306;8.636;2023-02-03T11:12:02;101701.13;;;8.29;100.00
10060;BME280;5069;49.306;8.636;2023-02-03T11:15:05;101695.84;;;8.26;100.00
10060;BME280;5069;49.306;8.636;2023-02-03T11:24:40;101680.13;;;8.23;100.00
10060;BME280;5069;49.306;8.636;2023-02-03T11:27:43;101686.22;;;8.33;100.00
10060;BME280;5069;49.306;8.636;2023-02-03T11:30:45;101691.50;;;8.30;100.00
10060;BME280;5069;49.306;8.636;2023-02-03T11:33:48;101691.47;;;8.27;100.00
10060;BME280;5069;49.306;8.636;2023-02-03T11:36:51;101681.88;;;8.31;100.00
10060;BME280;5069;49.306;8.636;2023-02-03T11:40:13;101684.50;;;8.35;100.00
10060;BME280;5069;49.306;8.636;2023-02-03T11:43:22;101682.75;;;8.37;100.00
10060;BME280;5069;49.306;8.636;2023-02-03T11:46:23;101701.97;;;8.39;100.00
10060;BME280;5069;49.306;8.636;2023-02-03T11:52:54;101689.72;;;8.41;100.00
10060;BME280;5069;49.306;8.636;2023-02-03T11:56:10;101707.22;;;8.39;100.00
10060;BME280;5069;49.306;8.636;2023-02-03T11:59:28;101714.19;;;8.49;100.00
10060;BME280;5069;49.306;8.636;2023-02-03T12:09:56;101706.25;;;8.64;100.00
10060;BME280;5069;49.306;8.636;2023-02-03T12:17:00;101688.66;;;8.80;100.00
10060;BME280;5069;49.306;8.636;2023-02-03T12:24:01;101658.03;;;8.68;100.00
10060;BME280;5069;49.306;8.636;2023-02-03T12:27:21;101654.50;;;8.76;100.00
10060;BME280;5069;49.306;8.636;2023-02-03T12:30:31;101634.31;;;8.81;100.00
10060;BME280;5069;49.306;8.636;2023-02-03T12:33:47;101621.19;;;8.75;100.00
10060;BME280;5069;49.306;8.636;2023-02-03T12:36:55;101622.00;;;8.87;100.00
10060;BME280;5069;49.306;8.636;2023-02-03T12:40:02;101608.81;;;8.89;100.00
10060;BME280;5069;49.306;8.636;2023-02-03T12:46:55;101611.47;;;8.86;100.00
10060;BME280;5069;49.306;8.636;2023-02-03T12:50:13;101630.69;;;8.98;100.00
10060;BME280;5069;49.306;8.636;2023-02-03T12:53:29;101627.13;;;9.02;100.00
10060;BME280;5069;49.306;8.636;2023-02-03T12:56:41;101638.53;;;9.00;100.00
10060;BME280;5069;49.306;8.636;2023-02-03T13:00:00;101620.06;;;9.10;100.00
10060;BME280;5069;49.306;8.636;2023-02-03T13:03:25;101610.47;;;9.05;100.00
10060;BME280;5069;49.306;8.636;2023-02-03T13:10:02;101598.09;;;9.16;100.00
10060;BME280;5069;49.306;8.636;2023-02-03T13:13:11;101582.31;;;9.15;100.00
10060;BME280;5069;49.306;8.636;2023-02-03T13:16:16;101578.75;;;9.20;100.00
10060;BME280;5069;49.306;8.636;2023-02-03T13:19:24;101569.03;;;9.28;100.00
10060;BME280;5069;49.306;8.636;2023-02-03T13:22:27;101562.81;;;9.35;100.00
10060;BME280;5069;49.306;8.636;2023-02-03T13:26:07;101546.13;;;9.38;100.00
10060;BME280;5069;49.306;8.636;2023-02-03T13:29:16;101559.13;;;9.51;100.00
10060;BME280;5069;49.306;8.636;2023-02-03T13:33:02;101555.66;;;9.49;100.00
10060;BME280;5069;49.306;8.636;2023-02-03T13:39:40;101558.19;;;9.60;100.00
10060;BME280;5069;49.306;8.636;2023-02-03T13:43:13;101559.06;;;9.58;100.00
10060;BME280;5069;49.306;8.636;2023-02-03T13:46:33;101540.56;;;9.65;100.00
10060;BME280;5069;49.306;8.636;2023-02-03T13:49:36;101545.91;;;9.59;100.00
10060;BME280;5069;49.306;8.636;2023-02-03T13:52:44;101546.88;;;9.49;100.00
10060;BME280;5069;49.306;8.636;2023-02-03T13:56:01;101559.19;;;9.48;100.00
10060;BME280;5069;49.306;8.636;2023-02-03T14:05:46;101552.22;;;9.44;100.00
10060;BME280;5069;49.306;8.636;2023-02-03T14:08:57;101543.50;;;9.36;100.00
10060;BME280;5069;49.306;8.636;2023-02-03T14:18:34;101591.75;;;9.38;100.00
10060;BME280;5069;49.306;8.636;2023-02-03T14:22:15;101594.44;;;9.29;100.00
10060;BME280;5069;49.306;8.636;2023-02-03T14:25:18;101600.59;;;9.31;100.00
10060;BME280;5069;49.306;8.636;2023-02-03T14:28:22;101616.38;;;9.33;100.00
10060;BME280;5069;49.306;8.636;2023-02-03T14:31:26;101617.28;;;9.27;100.00
10060;BME280;5069;49.306;8.636;2023-02-03T14:34:33;101613.72;;;9.31;100.00
10060;BME280;5069;49.306;8.636;2023-02-03T14:37:35;101615.53;;;9.26;100.00
10060;BME280;5069;49.306;8.636;2023-02-03T14:40:50;101617.25;;;9.30;100.00
10060;BME280;5069;49.306;8.636;2023-02-03T14:44:53;101611.25;;;9.15;100.00
10060;BME280;5069;49.306;8.636;2023-02-03T15:00:27;101610.28;;;9.23;100.00
10060;BME280;5069;49.306;8.636;2023-02-03T15:03:29;101613.06;;;9.09;100.00
10060;BME280;5069;49.306;8.636;2023-02-03T15:06:40;101609.50;;;9.13;100.00
10060;BME280;5069;49.306;8.636;2023-02-03T15:09:46;101628.84;;;9.08;100.00
10060;BME280;5069;49.306;8.636;2023-02-03T15:12:57;101622.72;;;9.06;100.00
10060;BME280;5069;49.306;8.636;2023-02-03T15:16:01;101613.97;;;9.04;100.00
10060;BME280;5069;49.306;8.636;2023-02-03T15:19:15;101627.13;;;9.02;100.00
10060;BME280;5069;49.306;8.636;2023-02-03T15:25:28;101606.97;;;9.03;100.00
10060;BME280;5069;49.306;8.636;2023-02-03T15:28:31;101604.41;;;8.92;100.00
10060;BME280;5069;49.306;8.636;2023-02-03T15:31:47;101606.13;;;8.99;100.00
10060;BME280;5069;49.306;8.636;2023-02-03T15:34:51;101606.13;;;8.98;100.00
10060;BME280;5069;49.306;8.636;2023-02-03T15:37:58;101603.50;;;8.95;100.00
10060;BME280;5069;49.306;8.636;2023-02-03T15:41:03;101589.47;;;8.96;100.00
10060;BME280;5069;49.306;8.636;2023-02-03T15:44:13;101603.56;;;8.89;100.00
10060;BME280;5069;49.306;8.636;2023-02-03T15:47:40;101605.34;;;8.84;100.00
10060;BME280;5069;49.306;8.636;2023-02-03T15:50:49;101609.72;;;8.86;100.00
10060;BME280;5069;49.306;8.636;2023-02-03T15:53:58;101603.63;;;8.83;100.00
10060;BME280;5069;49.306;8.636;2023-02-03T15:57:05;101615.03;;;8.77;100.00
10060;BME280;5069;49.306;8.636;2023-02-03T16:00:35;101615.94;;;8.71;100.00
10060;BME280;5069;49.306;8.636;2023-02-03T16:03:42;101615.09;;;8.71;100.00
10060;BME280;5069;49.306;8.636;2023-02-03T16:06:47;101618.63;;;8.61;100.00
10060;BME280;5069;49.306;8.636;2023-02-03T16:09:53;101623.91;;;8.61;100.00
10060;BME280;5069;49.306;8.636;2023-02-03T16:13:18;101613.38;;;8.61;100.00
10060;BME280;5069;49.306;8.636;2023-02-03T16:16:37;101615.13;;;8.60;100.00
10060;BME280;5069;49.306;8.636;2023-02-03T16:19:40;101598.50;;;8.61;100.00
10060;BME280;5069;49.306;8.636;2023-02-03T16:22:46;101600.28;;;8.59;100.00
10060;BME280;5069;49.306;8.636;2023-02-03T16:26:16;101612.53;;;8.54;100.00
10060;BME280;5069;49.306;8.636;2023-02-03T16:29:18;101609.06;;;8.52;100.00
10060;BME280;5069;49.306;8.636;2023-02-03T16:32:38;101622.19;;;8.57;100.00
10060;BME280;5069;49.306;8.636;2023-02-03T16:36:10;101634.44;;;8.58;100.00
10060;BME280;5069;49.306;8.636;2023-02-03T16:39:30;101637.97;;;8.54;100.00
10060;BME280;5069;49.306;8.636;2023-02-03T16:42:51;101644.13;;;8.51;100.00
10060;BME280;5069;49.306;8.636;2023-02-03T16:46:11;101642.38;;;8.50;100.00
10060;BME280;5069;49.306;8.636;2023-02-03T16:49:31;101653.72;;;8.55;100.00
10060;BME280;5069;49.306;8.636;2023-02-03T16:52:51;101661.59;;;8.55;100.00
10060;BME280;5069;49.306;8.636;2023-02-03T16:55:56;101651.97;;;8.56;100.00
10060;BME280;5069;49.306;8.636;2023-02-03T16:58:57;101652.84;;;8.56;100.00
10060;BME280;5069;49.306;8.636;2023-02-03T17:01:59;101658.94;;;8.63;100.00
10060;BME280;5069;49.306;8.636;2023-02-03T17:05:01;101664.19;;;8.64;100.00
10060;BME280;5069;49.306;8.636;2023-02-03T17:08:03;101677.34;;;8.61;100.00
10060;BME280;5069;49.306;8.636;2023-02-03T17:11:07;101673.84;;;8.65;100.00
10060;BME280;5069;49.306;8.636;2023-02-03T17:14:09;101675.59;;;8.60;100.00
10060;BME280;5069;49.306;8.636;2023-02-03T17:17:11;101657.22;;;8.54;100.00
10060;BME280;5069;49.306;8.636;2023-02-03T17:20:12;101665.13;;;8.57;100.00
10060;BME280;5069;49.306;8.636;2023-02-03T17:23:14;101670.34;;;8.63;100.00
10060;BME280;5069;49.306;8.636;2023-02-03T17:26:17;101673.78;;;8.71;100.00
10060;BME280;5069;49.306;8.636;2023-02-03T17:29:18;101676.41;;;8.73;100.00
10060;BME280;5069;49.306;8.636;2023-02-03T17:32:20;101668.53;;;8.75;100.00
10060;BME280;5069;49.306;8.636;2023-02-03T17:35:21;101672.91;;;8.73;100.00
10060;BME280;5069;49.306;8.636;2023-02-03T17:38:22;101673.75;;;8.78;100.00
10060;BME280;5069;49.306;8.636;2023-02-03T17:41:25;101679.88;;;8.80;100.00
10060;BME280;5069;49.306;8.636;2023-02-03T17:44:45;101678.13;;;8.80;100.00
10060;BME280;5069;49.306;8.636;2023-02-03T17:48:04;101682.53;;;8.77;100.00
10060;BME280;5069;49.306;8.636;2023-02-03T17:51:24;101677.25;;;8.80;100.00
10060;BME280;5069;49.306;8.636;2023-02-03T17:54:43;101666.69;;;8.86;100.00
10060;BME280;5069;49.306;8.636;2023-02-03T17:57:45;101670.28;;;8.76;100.00
10060;BME280;5069;49.306;8.636;2023-02-03T18:00:46;101672.00;;;8.80;100.00
10060;BME280;5069;49.306;8.636;2023-02-03T18:03:50;101676.41;;;8.75;100.00
10060;BME280;5069;49.306;8.636;2023-02-03T18:06:52;101674.63;;;8.81;100.00
10060;BME280;5069;49.306;8.636;2023-02-03T18:09:54;101678.13;;;8.77;100.00
10060;BME280;5069;49.306;8.636;2023-02-03T18:12:56;101679.03;;;8.75;100.00